aviador You're here:

LFBZ Decoded Metar

BIARRITZ-BAYONNE in FRANCE
Report Time2017-08-24 08:30:00
UTC Time2017-08-24 08:52:31
Flight Rules mvfr MVFR
Wind090° at 03 kt
W.Decomp.*RWY 09: 3.0 kt HW 0.1 kt RCW
W.Rank090° ranks 8
Current wind is below 090° avg. (5.8)
Visibility9999 m
Phenomena:N/A
Clouds:Scattered 012 Hf
Overcast 021 Hf
Expected CloudBase > 1,200 ft AGL from Temp-Dew spread
Ceiling2,100 ft
Temp22°C (ISA +7)
Dew Point19°C (83% RH)
QNH1017 hPa
Density Alt1,260 ft
Elevation233 ft
Report Wrong Elevation
Raw Report
LFBZ 240830Z AUTO 09003KT 040V150 9999 SCT012 OVC021 22/19 Q1017
BECMG 33010KT=

Extra information for LFBZ:More info

Metar Taf Metar & Taf Last 4 Metars F.Rules Stats Wind Profile Meteogram Temp Stats Airport Information Weather charts Add Link Nearby VenuesMetar ALERT Operation Metar Decoded Social comments